Eastport, MI (49627)

10:04 PM EST on March 04, 2015 (GMT -0500)
Grand Traverse Bay | Change Station
CLOSE
Current Station
Personal Weather Station
Location: Eastport, MI
Elevation: 622 ft
Nearby Weather Stations

Elev 622 ft 45.11 °N, 85.36 °W | Updated 4 minutes ago

Clear
Clear
3.5 °F
Feels Like 4 °F
N
1.0
Wind Variable Wind from NW
Gusts 1.0 mph

Today
High -- | Low -- °F
--% Chance of Precip.
Yesterday
High -- | Low -- °F
Precip. -- in
7:14 AM 6:32 PM
Full, 100% visible
Pressure 30.23 in
Visibility 10.0 miles
Clouds Clear
Windchill 4 °F
Dew Point -3 °F
Humidity 73%
Rainfall 0.00 in
Snow Depth Not available.
UV 0 out of 12
Pollen .40 out of 12
Air Quality Not available.
Flu Activity Not available.
METAR KACB 050216Z AUTO 00000KT 10SM CLR M15/M20 A3023 RMK AO2 T11491205

More Conditions Fewer Conditions

Pressure 30.23 in
Visibility 10.0 miles
Clouds Clear
Windchill 4 °F
Dew Point -3 °F
Humidity 73%
Rainfall 0.00 in
Snow Depth Not available.
UV 0 out of 12
Pollen .40 out of 12
Air Quality Not available.
Flu Activity Not available.
METAR KACB 050216Z AUTO 00000KT 10SM CLR M15/M20 A3023 RMK AO2 T11491205

More Conditions Fewer Conditions

Nowcast | as of 10:00 PM EST on March 4, 2015

At 11 PM...mostly cloudy. Scattered snow showers. Temperature 1 below. Light winds. At 1 am...partly cloudy. Temperature 5 below. Light winds. At 3 am...partly cloudy. Temperature 7 below. Light winds. At 5 am...partly cloudy. Temperature 9 below. Light winds.

×

10-Day Weather Forecast

Almanac

Astronomy

Mar. 04, 2015 Rise Set
Actual Time
Civil Twilight
Nautical Twilight
Astronomical Twilight
Moon
Length of Visible Light
Length of Day
Tomorrow will be .
, % of the Moon is Illuminated

Today's Extremes

State Highs State Lows

Community

WunderPhotos

Upload Photos

1,802,641 photos uploaded!

WunderBlogs® & News

Nearby

Air Quality

  Air Quality AQ Index Pollutant
Not available.

Snow Depth

Station Depth Elevation

Earthquake Activity

City Distance Mag. Time & Date
Minimum magnitude displayed is 2.5.

Coastal Water Temperatures

Place Temperature

Nearby Weather Stations